Pace, Mississippi
Current Conditions -  °F | °C
As of 7:55 PM on Saturday 22 Nov 2014 (Local Time) from KRNV Reporting Station
Clear Clear  
Wind Chill: 60°   Ceiling: Unl
Heat Index: 60°   Visibility: 10mi
Dew Point: 51°   Wind: 9mph
Humidity: 71%   Direction: 110°ESE
Pressure: 30"   Gusts: NA
Location:  33.79°N, 90.86°W
Report Text: KRNV 230155Z AUTO 11008KT 10SM CLR 16/10 A3000 RMK AO2 T01550103
Loading
Personal Weather Stations






























Interactive Weather Map New forecast layout! Learn more

10-Day Weather Forecast

Advertisements
Track Severe Weather on mobile